Time;durP1;ratioP1;P1;durP2;ratioP2;P2;SDS_P1;SDS_P2;PMS_P1;PMS_P2;Temp;Humidity;BMP_temperature;BMP_pressure;BME280_temperature;BME280_humidity;BME280_pressure;Samples;Min_cycle;Max_cycle;Signal;HPM_P1;HPM_P2
2023/12/21 00:04:32;;;;;;;7.13;1.33;;;;;;;;;;5046130;28;20235;-80
2023/12/21 00:07:02;;;;;;;8.35;1.48;;;;;;;;;;5048978;28;20296;-79
2023/12/21 00:09:32;;;;;;;9.25;1.48;;;;;;;;;;5049393;28;20202;-79
2023/12/21 00:12:02;;;;;;;8.35;1.58;;;;;;;;;;5047093;28;20202;-77
2023/12/21 00:14:33;;;;;;;13.20;1.70;;;;;;;;;;5047881;28;20194;-77
2023/12/21 00:17:03;;;;;;;10.88;1.60;;;;;;;;;;5046252;28;20217;-80
2023/12/21 00:19:35;;;;;;;9.38;1.58;;;;;;;;;;5044088;28;20225;-77
2023/12/21 00:22:05;;;;;;;6.57;1.60;;;;;;;;;;5039349;28;20696;-80
2023/12/21 00:24:35;;;;;;;12.23;1.85;;;;;;;;;;5045848;28;20202;-79
2023/12/21 00:27:05;;;;;;;8.07;1.88;;;;;;;;;;5043260;28;20291;-79
2023/12/21 00:29:35;;;;;;;10.48;1.80;;;;;;;;;;5043184;28;20198;-79
2023/12/21 00:32:06;;;;;;;12.90;2.70;;;;;;;;;;5044556;28;20201;-79
2023/12/21 00:34:42;;;;;;;9.70;1.98;;;;;;;;;;5045622;28;20213;-77
2023/12/21 00:37:12;;;;;;;10.00;1.67;;;;;;;;;;5043050;28;20217;-77
2023/12/21 00:39:47;;;;;;;12.57;2.65;;;;;;;;;;5043823;28;20208;-76
2023/12/21 00:42:18;;;;;;;11.57;1.88;;;;;;;;;;5042415;28;20204;-78
2023/12/21 00:44:51;;;;;;;11.70;1.80;;;;;;;;;;5041147;28;20208;-78
2023/12/21 00:47:23;;;;;;;12.20;1.73;;;;;;;;;;5045609;28;20228;-77
2023/12/21 00:49:55;;;;;;;109.80;61.45;;;;;;;;;;5042721;28;20202;-78
2023/12/21 00:52:25;;;;;;;32.60;15.50;;;;;;;;;;5042025;28;20312;-76
2023/12/21 00:54:56;;;;;;;24.55;9.50;;;;;;;;;;5044691;28;20201;-76
2023/12/21 00:57:26;;;;;;;21.80;7.43;;;;;;;;;;5045939;28;20689;-77
2023/12/21 00:59:57;;;;;;;16.40;3.90;;;;;;;;;;5044988;28;20198;-77
2023/12/21 01:02:27;;;;;;;10.45;2.53;;;;;;;;;;5043751;28;20570;-79
2023/12/21 01:05:01;;;;;;;14.10;2.90;;;;;;;;;;5042154;28;20230;-76
2023/12/21 01:07:37;;;;;;;17.27;3.08;;;;;;;;;;5046461;28;20984;-76
2023/12/21 01:10:08;;;;;;;15.55;2.40;;;;;;;;;;5045583;28;20247;-78
2023/12/21 01:12:38;;;;;;;16.52;3.28;;;;;;;;;;5042845;28;20637;-77
2023/12/21 01:15:12;;;;;;;13.88;2.35;;;;;;;;;;5046018;28;20581;-78
2023/12/21 01:17:42;;;;;;;17.33;2.45;;;;;;;;;;5042715;28;20228;-77
2023/12/21 01:20:17;;;;;;;16.48;2.45;;;;;;;;;;5043339;28;20205;-77
2023/12/21 01:22:47;;;;;;;15.70;2.78;;;;;;;;;;5044188;28;20284;-78
2023/12/21 01:25:18;;;;;;;15.02;2.60;;;;;;;;;;5038119;28;20654;-77
2023/12/21 01:27:48;;;;;;;14.90;2.53;;;;;;;;;;5041824;28;20224;-79
2023/12/21 01:30:21;;;;;;;15.93;2.55;;;;;;;;;;5038147;28;20292;-80
2023/12/21 01:33:01;;;;;;;15.13;2.05;;;;;;;;;;5038216;28;20205;-79
2023/12/21 01:35:37;;;;;;;14.57;2.45;;;;;;;;;;5045701;28;21617;-77
2023/12/21 01:38:07;;;;;;;14.93;2.90;;;;;;;;;;5044792;28;20680;-78
2023/12/21 01:40:40;;;;;;;12.65;2.20;;;;;;;;;;5044239;28;20286;-78
2023/12/21 01:43:10;;;;;;;15.32;2.72;;;;;;;;;;5043544;28;20581;-76
2023/12/21 01:45:46;;;;;;;15.63;2.42;;;;;;;;;;5044354;28;20641;-76
2023/12/21 01:48:16;;;;;;;14.63;2.45;;;;;;;;;;5040770;28;20267;-77
2023/12/21 01:50:49;;;;;;;15.77;2.13;;;;;;;;;;5045576;28;20216;-76
2023/12/21 01:53:20;;;;;;;13.38;2.10;;;;;;;;;;5045310;28;20197;-78
2023/12/21 01:55:50;;;;;;;15.13;2.60;;;;;;;;;;5042622;28;20206;-77
2023/12/21 01:58:20;;;;;;;17.23;2.25;;;;;;;;;;5042944;28;20205;-77
2023/12/21 02:00:53;;;;;;;13.27;2.33;;;;;;;;;;5047214;28;20227;-76
2023/12/21 02:03:23;;;;;;;14.73;2.05;;;;;;;;;;5046031;28;20204;-77
2023/12/21 02:06:00;;;;;;;13.77;2.15;;;;;;;;;;5042742;28;20254;-76
2023/12/21 02:08:30;;;;;;;12.30;2.33;;;;;;;;;;5043526;28;20197;-76
2023/12/21 02:11:02;;;;;;;15.18;2.30;;;;;;;;;;5044884;28;20296;-76
2023/12/21 02:13:32;;;;;;;14.70;2.45;;;;;;;;;;5044043;28;20197;-77
2023/12/21 02:16:07;;;;;;;13.40;2.15;;;;;;;;;;5041089;28;20664;-76
2023/12/21 02:18:37;;;;;;;12.27;2.10;;;;;;;;;;5042971;28;20295;-77
2023/12/21 02:21:15;;;;;;;12.35;2.05;;;;;;;;;;5040085;28;20566;-77
2023/12/21 02:23:45;;;;;;;14.38;2.25;;;;;;;;;;5041969;28;20536;-76
2023/12/21 02:26:18;;;;;;;19.10;2.38;;;;;;;;;;5044861;28;20241;-77
2023/12/21 02:28:48;;;;;;;13.80;2.10;;;;;;;;;;5040614;28;20252;-77
2023/12/21 02:31:18;;;;;;;12.77;2.28;;;;;;;;;;5043894;28;20285;-76
2023/12/21 02:33:53;;;;;;;17.05;2.80;;;;;;;;;;5044305;28;20203;-77
2023/12/21 02:36:24;;;;;;;13.48;1.98;;;;;;;;;;5044790;28;20559;-77
2023/12/21 02:38:55;;;;;;;13.65;2.47;;;;;;;;;;5045416;28;20666;-77
2023/12/21 02:41:28;;;;;;;14.25;2.55;;;;;;;;;;5043568;28;20680;-77
2023/12/21 02:43:58;;;;;;;16.00;2.22;;;;;;;;;;5044558;28;20205;-79
2023/12/21 02:46:28;;;;;;;11.90;2.45;;;;;;;;;;5044183;28;20659;-78
2023/12/21 02:48:58;;;;;;;17.27;2.78;;;;;;;;;;5040061;28;21856;-77
2023/12/21 02:51:28;;;;;;;12.50;1.95;;;;;;;;;;5043533;28;20197;-82
2023/12/21 02:53:58;;;;;;;15.95;2.40;;;;;;;;;;5043691;28;20248;-78
2023/12/21 02:56:30;;;;;;;15.40;2.63;;;;;;;;;;5040645;28;20233;-79
2023/12/21 02:59:02;;;;;;;13.30;2.22;;;;;;;;;;5041361;28;20214;-77
2023/12/21 03:01:32;;;;;;;15.45;2.40;;;;;;;;;;5042365;28;20200;-79
2023/12/21 03:04:02;;;;;;;13.00;2.30;;;;;;;;;;5040073;28;20202;-78
2023/12/21 03:06:32;;;;;;;12.55;2.47;;;;;;;;;;5041369;28;20232;-81
2023/12/21 03:09:02;;;;;;;12.75;2.17;;;;;;;;;;5044446;28;20202;-79
2023/12/21 03:11:34;;;;;;;14.32;1.95;;;;;;;;;;5048982;28;20201;-78
2023/12/21 03:14:04;;;;;;;14.40;2.25;;;;;;;;;;5046792;28;20244;-77
2023/12/21 03:16:35;;;;;;;14.13;2.58;;;;;;;;;;5048634;28;20237;-78
2023/12/21 03:19:05;;;;;;;16.77;2.60;;;;;;;;;;5046879;28;20193;-79
2023/12/21 03:21:36;;;;;;;18.63;2.60;;;;;;;;;;5044801;28;20193;-78
2023/12/21 03:24:07;;;;;;;14.45;2.10;;;;;;;;;;5046173;28;20209;-76
2023/12/21 03:26:39;;;;;;;14.82;2.65;;;;;;;;;;5050132;28;20205;-75
2023/12/21 03:29:11;;;;;;;18.98;2.90;;;;;;;;;;5046139;28;20197;-78
2023/12/21 03:31:45;;;;;;;14.15;2.28;;;;;;;;;;5051576;28;20225;-80
2023/12/21 03:34:15;;;;;;;22.00;2.72;;;;;;;;;;5047780;28;20209;-82
2023/12/21 03:36:46;;;;;;;18.88;2.72;;;;;;;;;;5050612;28;20224;-80
2023/12/21 03:39:18;;;;;;;15.15;2.40;;;;;;;;;;5049029;28;20194;-76
2023/12/21 03:41:56;;;;;;;12.60;2.05;;;;;;;;;;5046883;28;20221;-78
2023/12/21 03:44:29;;;;;;;13.63;1.83;;;;;;;;;;5050341;28;20197;-79
2023/12/21 03:47:01;;;;;;;17.08;2.95;;;;;;;;;;5051611;28;20566;-79
2023/12/21 03:49:31;;;;;;;16.50;2.80;;;;;;;;;;5044022;28;20719;-81
2023/12/21 03:52:01;;;;;;;12.88;2.13;;;;;;;;;;5047327;28;20280;-78
2023/12/21 03:54:38;;;;;;;14.07;2.60;;;;;;;;;;5048021;28;20320;-77
2023/12/21 03:57:13;;;;;;;10.93;2.17;;;;;;;;;;5051242;28;20233;-76
2023/12/21 03:59:48;;;;;;;10.45;1.88;;;;;;;;;;5048028;28;20200;-77
2023/12/21 04:02:18;;;;;;;14.80;2.40;;;;;;;;;;5048874;28;20209;-78
2023/12/21 04:04:48;;;;;;;15.20;2.10;;;;;;;;;;5047331;28;20567;-75
2023/12/21 04:07:24;;;;;;;16.15;2.35;;;;;;;;;;5046056;28;20284;-74
2023/12/21 04:09:59;;;;;;;12.55;2.28;;;;;;;;;;5046611;28;20197;-75
2023/12/21 04:12:31;;;;;;;15.38;2.33;;;;;;;;;;5045752;28;20196;-78
2023/12/21 04:15:01;;;;;;;19.77;2.67;;;;;;;;;;5046890;28;20653;-75
2023/12/21 04:17:31;;;;;;;17.13;2.63;;;;;;;;;;5048397;28;20710;-76
2023/12/21 04:20:01;;;;;;;17.00;2.20;;;;;;;;;;5049958;28;20220;-80
2023/12/21 04:22:31;;;;;;;14.90;2.22;;;;;;;;;;5047210;28;20219;-76
2023/12/21 04:25:01;;;;;;;14.38;2.47;;;;;;;;;;5045722;28;20581;-78
2023/12/21 04:27:35;;;;;;;14.48;2.38;;;;;;;;;;5046985;28;20209;-76
2023/12/21 04:30:06;;;;;;;13.48;2.53;;;;;;;;;;5046257;28;20200;-74
2023/12/21 04:32:36;;;;;;;14.23;2.45;;;;;;;;;;5047773;28;20200;-77
2023/12/21 04:35:08;;;;;;;17.50;3.10;;;;;;;;;;5045894;28;20236;-74
2023/12/21 04:37:38;;;;;;;13.93;1.95;;;;;;;;;;5047378;28;20287;-75
2023/12/21 04:40:09;;;;;;;13.25;2.20;;;;;;;;;;5043629;28;20589;-79
2023/12/21 04:42:42;;;;;;;13.77;2.45;;;;;;;;;;5048698;28;20204;-81
2023/12/21 04:45:15;;;;;;;14.80;2.08;;;;;;;;;;5046353;28;20234;-80
2023/12/21 04:47:49;;;;;;;9.27;1.77;;;;;;;;;;5048371;28;20567;-75
2023/12/21 04:50:20;;;;;;;20.60;3.28;;;;;;;;;;5045454;28;20285;-83
2023/12/21 04:52:51;;;;;;;13.48;2.03;;;;;;;;;;5043619;28;20201;-77
2023/12/21 04:55:34;;;;;;;14.98;2.38;;;;;;;;;;5044890;28;21131;-74
2023/12/21 04:58:07;;;;;;;12.38;2.30;;;;;;;;;;5045857;28;20245;-83
2023/12/21 05:00:40;;;;;;;13.63;2.22;;;;;;;;;;5045068;28;20205;-75
2023/12/21 05:03:10;;;;;;;16.85;2.72;;;;;;;;;;5049054;28;21981;-74
2023/12/21 05:05:41;;;;;;;14.55;2.22;;;;;;;;;;5045013;28;21013;-76
2023/12/21 05:08:12;;;;;;;11.77;2.10;;;;;;;;;;5052469;28;20601;-79
2023/12/21 05:10:42;;;;;;;13.20;2.17;;;;;;;;;;5044266;28;20193;-81
2023/12/21 05:13:16;;;;;;;13.68;3.13;;;;;;;;;;5046009;28;20244;-80
2023/12/21 05:15:47;;;;;;;13.70;2.08;;;;;;;;;;5047189;28;20201;-80
2023/12/21 05:18:24;;;;;;;12.45;2.47;;;;;;;;;;5045956;28;20578;-75
2023/12/21 05:20:55;;;;;;;13.90;2.45;;;;;;;;;;5043276;28;20285;-79
2023/12/21 05:23:25;;;;;;;15.55;2.40;;;;;;;;;;5043633;28;20555;-73
2023/12/21 05:25:59;;;;;;;13.15;2.20;;;;;;;;;;5045193;28;20201;-76
2023/12/21 05:28:31;;;;;;;14.07;2.38;;;;;;;;;;5041943;28;20202;-79
2023/12/21 05:31:03;;;;;;;9.90;1.73;;;;;;;;;;5046037;28;20200;-83
2023/12/21 05:33:33;;;;;;;10.90;1.98;;;;;;;;;;5042624;28;20204;-80
2023/12/21 05:36:03;;;;;;;13.10;2.30;;;;;;;;;;5048331;28;20210;-82
2023/12/21 05:38:33;;;;;;;11.80;2.00;;;;;;;;;;5043627;28;20685;-79
2023/12/21 05:41:08;;;;;;;13.82;2.10;;;;;;;;;;5047374;28;20251;-75
2023/12/21 05:43:43;;;;;;;14.43;2.42;;;;;;;;;;5046491;28;20251;-79
2023/12/21 05:46:13;;;;;;;12.45;2.22;;;;;;;;;;5047372;28;20194;-74
2023/12/21 05:48:43;;;;;;;15.43;2.30;;;;;;;;;;5050430;28;20202;-73
2023/12/21 05:51:13;;;;;;;11.00;1.98;;;;;;;;;;5052420;28;20200;-80
2023/12/21 05:53:43;;;;;;;15.35;1.92;;;;;;;;;;5052640;28;20217;-77
2023/12/21 05:56:13;;;;;;;17.88;2.40;;;;;;;;;;5049187;28;20622;-82
2023/12/21 05:58:45;;;;;;;9.27;2.10;;;;;;;;;;5052478;28;20257;-80
2023/12/21 06:01:15;;;;;;;14.27;2.22;;;;;;;;;;5052449;28;20198;-78
2023/12/21 06:03:45;;;;;;;14.35;2.50;;;;;;;;;;5051943;28;20204;-78
2023/12/21 06:06:15;;;;;;;11.20;2.20;;;;;;;;;;5052636;28;20319;-80
2023/12/21 06:08:45;;;;;;;14.80;3.00;;;;;;;;;;5051962;28;20216;-79
2023/12/21 06:11:15;;;;;;;12.32;2.20;;;;;;;;;;5053130;28;20741;-81
2023/12/21 06:13:47;;;;;;;13.20;2.17;;;;;;;;;;5052982;28;20308;-78
2023/12/21 06:16:16;;;;;;;12.73;2.10;;;;;;;;;;5054396;28;20273;-78
2023/12/21 06:18:48;;;;;;;13.10;2.28;;;;;;;;;;5059130;28;20236;-75
2023/12/21 06:21:18;;;;;;;15.60;2.15;;;;;;;;;;5040456;28;20277;-78
2023/12/21 06:23:48;;;;;;;12.75;2.25;;;;;;;;;;5052104;28;20203;-81
2023/12/21 06:26:18;;;;;;;10.93;2.25;;;;;;;;;;5052503;28;20197;-82
2023/12/21 06:28:50;;;;;;;14.43;2.10;;;;;;;;;;5051997;28;20526;-79
2023/12/21 06:31:20;;;;;;;16.58;2.40;;;;;;;;;;5052605;28;20186;-79
2023/12/21 06:33:50;;;;;;;16.13;2.83;;;;;;;;;;5052031;28;20215;-75
2023/12/21 06:36:20;;;;;;;12.50;2.10;;;;;;;;;;5052602;28;20193;-83
2023/12/21 06:38:50;;;;;;;13.85;1.83;;;;;;;;;;5047996;28;20232;-81
2023/12/21 06:41:20;;;;;;;8.65;1.92;;;;;;;;;;5052400;28;20236;-79
2023/12/21 06:43:52;;;;;;;13.57;2.17;;;;;;;;;;5052946;28;20248;-80
2023/12/21 06:46:22;;;;;;;9.93;1.95;;;;;;;;;;5052583;28;20196;-81
2023/12/21 06:48:52;;;;;;;16.15;2.38;;;;;;;;;;5052730;28;20208;-83
2023/12/21 06:51:22;;;;;;;12.70;2.28;;;;;;;;;;5048895;28;20621;-84
2023/12/21 06:53:52;;;;;;;12.52;2.13;;;;;;;;;;5052588;28;20267;-80
2023/12/21 06:56:22;;;;;;;15.15;2.10;;;;;;;;;;5053497;28;20276;-84
2023/12/21 06:58:54;;;;;;;13.60;2.53;;;;;;;;;;5051991;28;20221;-78
2023/12/21 07:01:27;;;;;;;15.85;2.33;;;;;;;;;;5049545;28;20204;-85
2023/12/21 07:03:57;;;;;;;11.32;2.28;;;;;;;;;;5052373;28;20271;-82
2023/12/21 07:06:27;;;;;;;15.35;2.85;;;;;;;;;;5051621;28;20732;-84
2023/12/21 07:08:57;;;;;;;14.05;2.30;;;;;;;;;;5052138;28;20556;-84
2023/12/21 07:11:27;;;;;;;13.77;2.10;;;;;;;;;;5051870;28;20227;-83
2023/12/21 07:13:59;;;;;;;16.42;2.47;;;;;;;;;;5052576;28;20233;-83
2023/12/21 07:16:29;;;;;;;14.00;2.30;;;;;;;;;;5052684;28;20553;-83
2023/12/21 07:19:00;;;;;;;16.42;2.63;;;;;;;;;;5051559;28;20251;-85
2023/12/21 07:21:31;;;;;;;12.52;2.30;;;;;;;;;;5051742;28;20662;-83
2023/12/21 07:24:02;;;;;;;16.73;2.83;;;;;;;;;;5050758;28;20198;-84
2023/12/21 07:26:32;;;;;;;18.02;2.50;;;;;;;;;;5036805;28;20202;-87
2023/12/21 07:29:03;;;;;;;16.02;2.58;;;;;;;;;;5044395;28;20202;-88
2023/12/21 07:31:33;;;;;;;12.32;2.38;;;;;;;;;;5051420;28;20196;-85
2023/12/21 07:34:03;;;;;;;16.05;2.70;;;;;;;;;;5039570;28;20663;-88
2023/12/21 07:36:33;;;;;;;15.45;2.72;;;;;;;;;;5049072;28;20200;-88
2023/12/21 07:39:07;;;;;;;16.17;2.22;;;;;;;;;;5048027;28;20225;-85
2023/12/21 07:41:36;;;;;;;14.40;2.83;;;;;;;;;;5043093;28;20194;-89
2023/12/21 07:44:08;;;;;;;17.23;2.60;;;;;;;;;;5049463;28;20194;-86
2023/12/21 07:46:38;;;;;;;18.50;2.67;;;;;;;;;;5036514;28;20182;-82
2023/12/21 07:49:08;;;;;;;19.50;2.60;;;;;;;;;;5049621;28;20189;-87
2023/12/21 07:51:38;;;;;;;14.40;2.50;;;;;;;;;;5043532;28;20743;-87
2023/12/21 07:54:08;;;;;;;15.25;2.05;;;;;;;;;;5039898;28;20569;-87
2023/12/21 07:56:38;;;;;;;18.27;2.40;;;;;;;;;;5046878;28;20193;-86
2023/12/21 07:59:10;;;;;;;16.05;2.75;;;;;;;;;;5052361;28;20234;-81
2023/12/21 08:01:40;;;;;;;18.83;2.28;;;;;;;;;;5051910;28;20535;-81
2023/12/21 08:04:11;;;;;;;13.75;2.30;;;;;;;;;;5055941;28;20285;-86
2023/12/21 08:06:41;;;;;;;12.65;2.15;;;;;;;;;;5053645;28;20244;-83
2023/12/21 08:09:11;;;;;;;18.00;2.85;;;;;;;;;;5055036;28;20208;-83
2023/12/21 08:11:41;;;;;;;17.30;2.35;;;;;;;;;;5050195;28;20198;-82
2023/12/21 08:14:13;;;;;;;13.45;2.53;;;;;;;;;;5042615;28;20197;-85
2023/12/21 08:16:43;;;;;;;13.73;2.40;;;;;;;;;;5055139;28;20226;-82
2023/12/21 08:19:13;;;;;;;18.50;2.85;;;;;;;;;;5054928;28;20227;-80
2023/12/21 08:21:43;;;;;;;15.15;2.38;;;;;;;;;;5055398;28;20211;-84
2023/12/21 08:24:13;;;;;;;17.70;2.75;;;;;;;;;;5055302;28;20209;-85
2023/12/21 08:26:43;;;;;;;13.98;2.40;;;;;;;;;;5053467;28;20247;-86
2023/12/21 08:29:15;;;;;;;15.77;2.65;;;;;;;;;;5054281;28;20202;-79
2023/12/21 08:31:45;;;;;;;11.77;2.40;;;;;;;;;;5055392;28;20259;-81
2023/12/21 08:34:15;;;;;;;11.13;2.30;;;;;;;;;;5054012;28;20623;-85
2023/12/21 08:36:45;;;;;;;19.23;2.13;;;;;;;;;;5054864;28;20280;-80
2023/12/21 08:39:15;;;;;;;13.07;2.30;;;;;;;;;;5054338;28;20237;-82
2023/12/21 08:41:45;;;;;;;19.50;2.80;;;;;;;;;;5050238;28;20749;-81
2023/12/21 08:44:17;;;;;;;16.60;2.50;;;;;;;;;;5052846;28;20327;-77
2023/12/21 08:46:47;;;;;;;14.63;2.70;;;;;;;;;;5053366;28;20270;-82
2023/12/21 08:49:18;;;;;;;17.10;2.35;;;;;;;;;;5054883;28;20208;-83
2023/12/21 08:51:49;;;;;;;19.52;2.83;;;;;;;;;;5054397;28;20681;-83
2023/12/21 08:54:19;;;;;;;22.13;2.97;;;;;;;;;;5041176;28;20255;-82
2023/12/21 08:56:50;;;;;;;20.80;2.55;;;;;;;;;;5050309;28;20614;-78
2023/12/21 08:59:25;;;;;;;15.95;2.40;;;;;;;;;;5049496;28;20305;-78
2023/12/21 09:01:56;;;;;;;13.98;2.72;;;;;;;;;;5048689;28;20208;-78
2023/12/21 09:04:26;;;;;;;13.98;2.70;;;;;;;;;;5051332;28;20216;-81
2023/12/21 09:06:56;;;;;;;16.23;2.20;;;;;;;;;;5050718;28;20251;-87
2023/12/21 09:09:26;;;;;;;16.10;2.60;;;;;;;;;;5053211;28;20303;-85
2023/12/21 09:11:56;;;;;;;12.98;2.33;;;;;;;;;;5047659;28;20206;-85
2023/12/21 09:14:27;;;;;;;11.60;2.13;;;;;;;;;;5050623;28;20216;-86
2023/12/21 09:16:58;;;;;;;16.05;2.53;;;;;;;;;;5053494;28;20232;-85
2023/12/21 09:19:28;;;;;;;18.00;2.35;;;;;;;;;;5053778;28;20288;-85
2023/12/21 09:21:58;;;;;;;17.88;2.88;;;;;;;;;;5050154;28;20206;-84
2023/12/21 09:24:28;;;;;;;20.00;2.95;;;;;;;;;;5050846;28;20688;-84
2023/12/21 09:26:58;;;;;;;17.58;3.10;;;;;;;;;;5049634;28;20202;-86
2023/12/21 09:29:30;;;;;;;20.52;2.75;;;;;;;;;;5050752;28;20204;-85
2023/12/21 09:32:00;;;;;;;12.40;2.28;;;;;;;;;;5053316;28;20679;-85
2023/12/21 09:34:30;;;;;;;16.05;2.60;;;;;;;;;;5049632;28;20210;-85
2023/12/21 09:37:00;;;;;;;14.73;2.78;;;;;;;;;;5046180;28;20206;-84
2023/12/21 09:39:30;;;;;;;17.30;2.83;;;;;;;;;;5051440;28;20236;-81
2023/12/21 09:42:01;;;;;;;17.63;2.83;;;;;;;;;;5047127;28;20236;-86
2023/12/21 09:44:33;;;;;;;14.65;2.25;;;;;;;;;;5052910;28;20251;-81
2023/12/21 09:47:04;;;;;;;14.13;2.72;;;;;;;;;;5052057;28;20189;-83
2023/12/21 09:49:36;;;;;;;11.35;2.17;;;;;;;;;;5051882;28;20229;-85
2023/12/21 09:52:07;;;;;;;14.93;2.17;;;;;;;;;;5045405;28;20272;-80
2023/12/21 09:54:41;;;;;;;17.35;2.80;;;;;;;;;;5050454;28;20664;-80
2023/12/21 09:57:11;;;;;;;11.43;2.38;;;;;;;;;;5048604;28;20202;-83
2023/12/21 09:59:43;;;;;;;12.52;2.78;;;;;;;;;;5050793;28;20235;-84
2023/12/21 10:02:13;;;;;;;14.05;2.50;;;;;;;;;;5049697;28;20288;-85
2023/12/21 10:04:44;;;;;;;14.68;2.42;;;;;;;;;;5052637;28;20248;-82
2023/12/21 10:07:14;;;;;;;18.95;2.35;;;;;;;;;;5052034;28;20296;-85
2023/12/21 10:09:45;;;;;;;15.02;2.45;;;;;;;;;;5049639;28;20660;-78
2023/12/21 10:12:15;;;;;;;11.23;2.10;;;;;;;;;;5047194;28;20635;-83
2023/12/21 10:14:47;;;;;;;13.50;2.55;;;;;;;;;;5045573;28;20209;-84
2023/12/21 10:17:19;;;;;;;15.45;2.13;;;;;;;;;;5045356;28;20288;-84
2023/12/21 10:19:48;;;;;;;13.60;2.20;;;;;;;;;;5047636;28;20218;-83
2023/12/21 10:22:19;;;;;;;13.45;2.17;;;;;;;;;;5051477;28;20197;-84
2023/12/21 10:24:50;;;;;;;11.13;1.95;;;;;;;;;;5048231;28;20734;-84
2023/12/21 10:27:21;;;;;;;17.05;2.25;;;;;;;;;;5047003;28;20204;-85
2023/12/21 10:29:59;;;;;;;18.25;2.22;;;;;;;;;;5052402;28;20205;-83
2023/12/21 10:32:29;;;;;;;15.82;2.40;;;;;;;;;;5044934;28;20200;-84
2023/12/21 10:34:59;;;;;;;11.57;2.08;;;;;;;;;;5043510;28;20202;-79
2023/12/21 10:37:29;;;;;;;12.32;2.38;;;;;;;;;;5050698;28;20190;-77
2023/12/21 10:40:00;;;;;;;16.23;2.22;;;;;;;;;;5048014;28;20236;-75
2023/12/21 10:42:30;;;;;;;13.50;2.30;;;;;;;;;;5033395;28;20659;-82
2023/12/21 10:45:02;;;;;;;15.65;2.35;;;;;;;;;;5051877;28;20186;-80
2023/12/21 10:47:32;;;;;;;15.55;2.20;;;;;;;;;;5052602;28;20216;-80
2023/12/21 10:50:03;;;;;;;12.10;2.38;;;;;;;;;;5053027;28;20649;-80
2023/12/21 10:52:34;;;;;;;13.15;2.40;;;;;;;;;;5053492;28;20221;-79
2023/12/21 10:55:04;;;;;;;12.30;2.20;;;;;;;;;;5053123;28;20637;-80
2023/12/21 10:57:34;;;;;;;10.73;1.90;;;;;;;;;;5052860;28;20198;-78
2023/12/21 11:00:12;;;;;;;13.55;1.90;;;;;;;;;;5052417;28;20231;-80
2023/12/21 11:02:43;;;;;;;9.88;1.83;;;;;;;;;;5052413;28;20185;-79
2023/12/21 11:05:19;;;;;;;9.38;1.90;;;;;;;;;;5049129;28;20248;-80
2023/12/21 11:07:51;;;;;;;12.93;2.00;;;;;;;;;;5052390;28;20268;-79
2023/12/21 11:10:21;;;;;;;11.38;1.98;;;;;;;;;;5052687;28;20225;-81
2023/12/21 11:12:51;;;;;;;13.48;2.25;;;;;;;;;;5053077;28;20650;-79
2023/12/21 11:15:24;;;;;;;13.43;2.08;;;;;;;;;;5052700;28;20201;-81
2023/12/21 11:17:57;;;;;;;12.15;1.80;;;;;;;;;;5052924;28;20189;-81
2023/12/21 11:20:30;;;;;;;10.60;2.03;;;;;;;;;;5052865;28;20681;-78
2023/12/21 11:23:00;;;;;;;11.23;2.05;;;;;;;;;;5053002;28;20721;-80
2023/12/21 11:25:30;;;;;;;12.38;1.92;;;;;;;;;;5052577;28;20536;-81
2023/12/21 11:28:02;;;;;;;16.15;2.03;;;;;;;;;;5052532;28;20202;-81
2023/12/21 11:30:35;;;;;;;11.05;2.08;;;;;;;;;;5055577;28;20235;-82
2023/12/21 11:33:08;;;;;;;15.65;2.17;;;;;;;;;;5055925;28;20221;-81
2023/12/21 11:35:38;;;;;;;10.88;2.00;;;;;;;;;;5056667;28;20206;-80
2023/12/21 11:38:09;;;;;;;14.93;2.30;;;;;;;;;;5056655;28;20284;-81
2023/12/21 11:40:41;;;;;;;14.73;2.10;;;;;;;;;;5056407;28;20685;-79
2023/12/21 11:43:24;;;;;;;10.85;1.75;;;;;;;;;;5055745;28;20194;-80
2023/12/21 11:45:56;;;;;;;14.52;2.38;;;;;;;;;;5056457;28;20220;-80
2023/12/21 11:48:26;;;;;;;13.32;2.10;;;;;;;;;;5056412;28;20200;-80
2023/12/21 11:51:03;;;;;;;13.63;2.10;;;;;;;;;;5056029;28;20212;-81
2023/12/21 11:53:34;;;;;;;12.38;2.08;;;;;;;;;;5056157;28;20192;-81
2023/12/21 11:56:15;;;;;;;12.65;2.00;;;;;;;;;;5056354;28;20193;-82
2023/12/21 11:58:45;;;;;;;12.80;2.25;;;;;;;;;;5056030;28;20197;-79
2023/12/21 12:01:27;;;;;;;14.95;1.90;;;;;;;;;;5055851;28;20185;-80
2023/12/21 12:03:58;;;;;;;13.75;1.95;;;;;;;;;;5053092;28;20598;-80
2023/12/21 12:06:29;;;;;;;14.63;2.17;;;;;;;;;;5054473;28;20238;-79
2023/12/21 12:09:00;;;;;;;13.32;1.58;;;;;;;;;;5055978;28;20185;-79
2023/12/21 12:11:30;;;;;;;12.13;2.05;;;;;;;;;;5056003;28;20260;-78
2023/12/21 12:14:00;;;;;;;14.15;2.10;;;;;;;;;;5055612;28;20201;-79
2023/12/21 12:16:33;;;;;;;12.07;2.05;;;;;;;;;;5042030;28;20206;-80
2023/12/21 12:19:03;;;;;;;13.60;2.00;;;;;;;;;;5055847;28;20237;-80
2023/12/21 12:21:33;;;;;;;17.77;2.20;;;;;;;;;;5051534;28;20190;-80
2023/12/21 12:24:03;;;;;;;12.05;1.98;;;;;;;;;;5055214;28;20658;-80
2023/12/21 12:26:35;;;;;;;13.70;1.95;;;;;;;;;;5048439;28;20198;-79
2023/12/21 12:29:05;;;;;;;16.58;2.22;;;;;;;;;;5055600;28;20233;-78
2023/12/21 12:31:37;;;;;;;14.75;2.45;;;;;;;;;;5047603;28;20194;-81
2023/12/21 12:34:07;;;;;;;16.23;2.33;;;;;;;;;;5052340;28;20240;-81
2023/12/21 12:36:37;;;;;;;9.30;1.90;;;;;;;;;;5055524;28;20302;-81
2023/12/21 12:39:07;;;;;;;13.95;2.03;;;;;;;;;;5055302;28;20490;-81
2023/12/21 12:41:37;;;;;;;14.52;2.00;;;;;;;;;;5050289;28;20194;-80
2023/12/21 12:44:08;;;;;;;11.07;2.08;;;;;;;;;;5054867;28;20231;-80
2023/12/21 12:46:41;;;;;;;13.52;1.90;;;;;;;;;;5053314;28;20235;-81
2023/12/21 12:49:12;;;;;;;15.10;2.30;;;;;;;;;;5055566;28;20304;-81
2023/12/21 12:51:44;;;;;;;14.00;2.40;;;;;;;;;;5051737;28;20209;-81
2023/12/21 12:54:14;;;;;;;14.50;2.10;;;;;;;;;;5054021;28;20186;-81
2023/12/21 12:56:51;;;;;;;15.70;1.95;;;;;;;;;;5049789;28;20276;-81
2023/12/21 12:59:21;;;;;;;14.52;2.10;;;;;;;;;;5043129;28;20221;-81
2023/12/21 13:01:53;;;;;;;20.30;2.67;;;;;;;;;;5054823;28;20200;-80
2023/12/21 13:04:23;;;;;;;11.27;1.92;;;;;;;;;;5054561;28;20269;-81
2023/12/21 13:06:53;;;;;;;16.38;2.20;;;;;;;;;;5052381;28;20201;-80
2023/12/21 13:09:26;;;;;;;14.10;2.10;;;;;;;;;;5054431;28;20204;-78
2023/12/21 13:11:56;;;;;;;16.25;2.13;;;;;;;;;;5054486;28;20193;-81
2023/12/21 13:14:26;;;;;;;12.95;2.05;;;;;;;;;;5052636;28;20688;-80
2023/12/21 13:16:58;;;;;;;12.77;1.90;;;;;;;;;;5040444;28;20576;-80
2023/12/21 13:19:28;;;;;;;17.67;2.50;;;;;;;;;;5054290;28;20217;-81
2023/12/21 13:21:58;;;;;;;13.88;2.13;;;;;;;;;;5046960;28;20198;-80
2023/12/21 13:24:28;;;;;;;16.02;2.05;;;;;;;;;;5035871;28;20386;-81
2023/12/21 13:26:58;;;;;;;15.38;2.10;;;;;;;;;;5053884;28;20283;-81
2023/12/21 13:29:28;;;;;;;14.80;2.15;;;;;;;;;;5053570;28;20288;-80
2023/12/21 13:32:00;;;;;;;12.90;2.30;;;;;;;;;;5054484;28;20847;-82
2023/12/21 13:34:31;;;;;;;13.15;2.10;;;;;;;;;;5053007;28;20216;-81
2023/12/21 13:37:02;;;;;;;16.15;2.33;;;;;;;;;;5046205;28;20268;-81
2023/12/21 13:39:32;;;;;;;15.15;2.17;;;;;;;;;;5047611;28;20304;-81
2023/12/21 13:42:02;;;;;;;15.27;2.25;;;;;;;;;;5053986;28;20202;-79
2023/12/21 13:44:32;;;;;;;13.20;2.10;;;;;;;;;;5053382;28;20204;-80
2023/12/21 13:47:04;;;;;;;12.18;2.13;;;;;;;;;;5053897;28;20205;-81
2023/12/21 13:49:34;;;;;;;15.60;2.53;;;;;;;;;;5053549;28;20193;-81
2023/12/21 13:52:04;;;;;;;18.25;2.28;;;;;;;;;;5053765;28;20217;-81
2023/12/21 13:54:34;;;;;;;16.15;2.60;;;;;;;;;;5049967;28;20285;-81
2023/12/21 13:57:04;;;;;;;11.63;2.20;;;;;;;;;;5052262;28;20208;-80
2023/12/21 13:59:34;;;;;;;13.82;2.00;;;;;;;;;;5053847;28;20653;-81
2023/12/21 14:02:05;;;;;;;24.20;3.20;;;;;;;;;;5053659;28;20201;-82
2023/12/21 14:04:35;;;;;;;12.32;2.30;;;;;;;;;;5051989;28;20225;-81
2023/12/21 14:07:05;;;;;;;11.77;1.90;;;;;;;;;;5050237;28;20700;-78
2023/12/21 14:09:37;;;;;;;13.52;2.40;;;;;;;;;;5045621;28;20615;-80
2023/12/21 14:12:07;;;;;;;12.23;2.25;;;;;;;;;;5049583;28;20580;-79
2023/12/21 14:14:37;;;;;;;14.50;3.10;;;;;;;;;;5050184;28;20195;-78
2023/12/21 14:17:09;;;;;;;10.55;2.00;;;;;;;;;;5052175;28;20657;-76
2023/12/21 14:19:39;;;;;;;10.88;2.22;;;;;;;;;;5053265;28;20194;-78
2023/12/21 14:22:09;;;;;;;14.55;2.28;;;;;;;;;;5053169;28;20212;-76
2023/12/21 14:24:39;;;;;;;9.95;2.45;;;;;;;;;;5053460;28;20198;-79
2023/12/21 14:27:09;;;;;;;17.35;2.65;;;;;;;;;;5052698;28;20205;-76
2023/12/21 14:29:38;;;;;;;12.52;2.10;;;;;;;;;;5052400;28;20198;-77
2023/12/21 14:32:10;;;;;;;12.90;2.10;;;;;;;;;;5052667;28;20205;-81
2023/12/21 14:34:40;;;;;;;17.58;2.53;;;;;;;;;;5052855;28;20273;-79
2023/12/21 14:37:13;;;;;;;12.43;2.00;;;;;;;;;;5053023;28;20650;-75
2023/12/21 14:39:43;;;;;;;16.55;2.33;;;;;;;;;;5053016;28;20240;-76
2023/12/21 14:42:13;;;;;;;13.15;2.20;;;;;;;;;;5053224;28;20304;-78
2023/12/21 14:44:43;;;;;;;14.55;2.33;;;;;;;;;;5052678;28;20225;-80
2023/12/21 14:47:14;;;;;;;15.20;2.45;;;;;;;;;;5049697;28;20201;-80
2023/12/21 14:49:45;;;;;;;15.07;2.42;;;;;;;;;;5045166;28;20239;-75
2023/12/21 14:52:15;;;;;;;10.45;2.20;;;;;;;;;;5053055;28;20221;-79
2023/12/21 14:54:45;;;;;;;8.63;2.05;;;;;;;;;;5052743;28;20209;-80
2023/12/21 14:57:15;;;;;;;14.13;2.20;;;;;;;;;;5052361;28;20194;-75